Decoded Metar for KC62 ( in ) (IATA:) | Meteo·Mobile Aviation Weather
aviador You're here:

KC62 Decoded Metar

in
Report Time2019-08-19 18:55:00
UTC Time2019-08-19 18:57:10
Flight Rules vfr VFR
Wind220° at 03 kt
Visibility9999 m
Phenomena:N/A
Clouds:Scattered 032 Hf
Broken 038 Hf
Overcast 047 Hf
Expected CloudBase > 3,200 ft AGL from Temp-Dew spread
Ceiling3,800 ft
Temp27°C
Dew Point19°C (62% RH)
Heat Index28.2°C
QNH1018 hPa
Raw Report
KC62 191855Z AUTO 22003KT 10SM SCT032 BKN038 OVC047 27/19 A3007
RMK AO2 T02740196=

Extra information for KC62:More info

Social comments